Time;durP1;ratioP1;P1;durP2;ratioP2;P2;SDS_P1;SDS_P2;PMS_P1;PMS_P2;Temp;Humidity;BMP_temperature;BMP_pressure;BME280_temperature;BME280_humidity;BME280_pressure;Samples;Min_cycle;Max_cycle;Signal;HPM_P1;HPM_P2
2022/09/06 00:01:54;;;;;;;2.20;1.20;;;19.80;67.90;;;;;;5047935;28;20391;-78
2022/09/06 00:04:20;;;;;;;2.88;1.50;;;19.80;68.00;;;;;;5047304;28;20029;-78
2022/09/06 00:06:46;;;;;;;3.05;1.23;;;19.70;67.80;;;;;;5057144;28;20028;-78
2022/09/06 00:09:11;;;;;;;2.80;1.42;;;19.70;67.90;;;;;;5065958;28;20036;-78
2022/09/06 00:11:37;;;;;;;8.13;2.50;;;19.70;67.90;;;;;;5059146;28;20041;-78
2022/09/06 00:14:03;;;;;;;2.33;1.50;;;19.60;67.80;;;;;;5040589;28;20331;-78
2022/09/06 00:16:29;;;;;;;3.38;1.40;;;19.60;67.90;;;;;;5060522;28;20448;-78
2022/09/06 00:18:55;;;;;;;3.80;1.65;;;19.60;67.90;;;;;;5058971;28;20271;-78
2022/09/06 00:21:27;;;;;;;1.58;1.20;;;19.50;67.80;;;;;;5063805;28;20039;-79
2022/09/06 00:23:54;;;;;;;2.10;1.10;;;19.50;67.90;;;;;;5050881;28;20033;-79
2022/09/06 00:26:21;;;;;;;7.05;1.73;;;19.50;67.90;;;;;;5065938;28;20031;-78
2022/09/06 00:28:47;;;;;;;3.08;1.45;;;19.40;67.90;;;;;;5063940;28;20021;-78
2022/09/06 00:31:16;;;;;;;1.58;1.13;;;19.40;67.90;;;;;;5041217;28;20029;-78
2022/09/06 00:33:42;;;;;;;2.42;1.20;;;19.40;67.90;;;;;;5039732;28;20028;-79
2022/09/06 00:36:10;;;;;;;3.28;1.25;;;19.30;67.80;;;;;;5072441;28;20566;-79
2022/09/06 00:38:36;;;;;;;1.88;0.90;;;19.30;67.90;;;;;;5070632;28;20031;-79
2022/09/06 00:41:03;;;;;;;1.55;0.90;;;19.30;68.00;;;;;;5061543;28;20194;-80
2022/09/06 00:43:29;;;;;;;2.13;1.23;;;19.20;67.90;;;;;;5046229;28;20039;-79
2022/09/06 00:45:56;;;;;;;2.75;1.38;;;19.20;68.00;;;;;;5065632;28;20024;-78
2022/09/06 00:48:23;;;;;;;1.67;1.00;;;19.20;68.00;;;;;;5057392;28;20044;-79
2022/09/06 00:50:52;;;;;;;2.67;1.15;;;19.10;68.00;;;;;;5020045;28;20032;-78
2022/09/06 00:53:18;;;;;;;2.15;1.20;;;19.10;68.00;;;;;;5059934;28;20345;-78
2022/09/06 00:55:44;;;;;;;2.40;1.33;;;19.10;68.00;;;;;;5054609;28;20090;-79
2022/09/06 00:58:11;;;;;;;3.75;1.40;;;19.00;67.90;;;;;;5057429;28;20480;-79
2022/09/06 01:00:37;;;;;;;4.03;1.30;;;19.00;68.00;;;;;;5059269;28;20033;-79
2022/09/06 01:03:06;;;;;;;3.22;1.00;;;19.00;68.00;;;;;;5063109;28;20124;-79
2022/09/06 01:05:41;;;;;;;2.20;1.40;;;19.00;68.10;;;;;;5075110;28;20388;-79
2022/09/06 01:08:45;;;;;;;5.40;2.00;;;18.90;68.00;;;;;;5067461;28;20402;-78
2022/09/06 01:11:48;;;;;;;2.60;1.10;;;18.90;68.10;;;;;;5048855;28;20089;-79
2022/09/06 01:14:27;;;;;;;2.28;1.27;;;18.80;68.00;;;;;;5044356;28;20090;-79
2022/09/06 01:17:09;;;;;;;2.13;1.30;;;18.80;67.90;;;;;;5065954;28;20044;-79
2022/09/06 01:19:54;;;;;;;4.15;1.30;;;18.80;68.00;;;;;;5066174;28;20055;-78
2022/09/06 01:22:38;;;;;;;3.47;1.38;;;18.70;67.90;;;;;;5052645;28;20071;-79
2022/09/06 01:25:41;;;;;;;4.00;1.77;;;18.70;68.00;;;;;;5065559;28;20038;-79
2022/09/06 01:28:24;;;;;;;3.97;2.03;;;18.70;68.00;;;;;;5053922;28;20518;-78
2022/09/06 01:30:59;;;;;;;1.70;1.25;;;18.60;67.80;;;;;;5046980;28;20097;-78
2022/09/06 01:33:47;;;;;;;6.28;2.00;;;18.60;67.90;;;;;;5057054;28;20099;-78
2022/09/06 01:36:19;;;;;;;3.03;1.33;;;18.60;68.00;;;;;;5017731;28;20032;-78
2022/09/06 01:38:45;;;;;;;3.43;1.60;;;18.50;67.80;;;;;;5065774;28;20044;-78
2022/09/06 01:41:11;;;;;;;4.32;1.58;;;18.50;67.90;;;;;;5051904;28;20791;-78
2022/09/06 01:43:42;;;;;;;3.47;1.77;;;18.40;67.80;;;;;;5062246;28;20397;-79
2022/09/06 01:46:43;;;;;;;2.88;1.70;;;18.40;67.90;;;;;;5066372;28;20491;-78
2022/09/06 01:49:28;;;;;;;3.80;1.67;;;18.40;68.00;;;;;;5020067;28;20040;-77
2022/09/06 01:52:09;;;;;;;6.53;2.00;;;18.30;67.90;;;;;;5057150;28;20055;-77
2022/09/06 01:54:41;;;;;;;3.30;2.15;;;18.30;67.90;;;;;;5050142;28;20429;-77
2022/09/06 01:57:39;;;;;;;2.28;1.83;;;18.20;67.80;;;;;;5049993;28;20035;-78
2022/09/06 02:00:11;;;;;;;5.20;1.50;;;18.20;68.00;;;;;;5035910;28;20381;-78
2022/09/06 02:03:14;;;;;;;2.33;1.65;;;18.20;68.00;;;;;;5067559;28;20040;-77
2022/09/06 02:05:52;;;;;;;1.85;1.40;;;18.20;68.10;;;;;;5056637;28;20027;-80
2022/09/06 02:08:30;;;;;;;1.85;1.60;;;18.20;68.10;;;;;;5050438;28;20025;-79
2022/09/06 02:11:02;;;;;;;3.88;1.52;;;18.10;67.90;;;;;;5060191;28;20036;-79
2022/09/06 02:13:34;;;;;;;2.70;1.53;;;18.10;67.90;;;;;;5067070;28;20043;-79
2022/09/06 02:16:02;;;;;;;2.37;1.10;;;18.20;68.10;;;;;;5067134;28;20035;-79
2022/09/06 02:18:57;;;;;;;3.20;1.33;;;18.20;68.70;;;;;;5065672;28;20680;-78
2022/09/06 02:21:34;;;;;;;3.25;1.48;;;18.20;68.30;;;;;;5063720;28;20457;-79
2022/09/06 02:24:04;;;;;;;2.80;1.55;;;18.10;68.00;;;;;;5037483;28;20029;-79
2022/09/06 02:26:33;;;;;;;3.30;1.75;;;18.20;68.20;;;;;;5048429;28;20042;-79
2022/09/06 02:29:00;;;;;;;3.92;1.65;;;18.10;68.00;;;;;;5060676;28;20036;-79
2022/09/06 02:31:37;;;;;;;3.47;1.40;;;18.10;68.30;;;;;;5057576;28;20021;-78
2022/09/06 02:34:04;;;;;;;2.40;1.60;;;18.20;68.30;;;;;;5069417;28;20036;-79
2022/09/06 02:36:31;;;;;;;2.60;1.70;;;18.20;68.30;;;;;;5066827;28;20020;-76
2022/09/06 02:39:00;;;;;;;2.30;1.38;;;18.20;68.30;;;;;;5071624;28;20513;-78
2022/09/06 02:41:27;;;;;;;1.95;1.63;;;18.20;68.40;;;;;;5071742;28;20445;-78
2022/09/06 02:43:53;;;;;;;2.60;1.70;;;18.20;68.30;;;;;;5052641;28;20027;-78
2022/09/06 02:46:19;;;;;;;2.40;1.73;;;18.10;68.20;;;;;;5071653;28;20052;-78
2022/09/06 02:48:45;;;;;;;2.17;1.67;;;18.20;68.40;;;;;;5058767;28;20032;-78
2022/09/06 02:51:11;;;;;;;2.42;1.50;;;18.10;68.20;;;;;;5065800;28;20021;-79
2022/09/06 02:53:37;;;;;;;2.60;1.60;;;18.10;68.30;;;;;;5069099;28;20017;-80
2022/09/06 02:56:03;;;;;;;3.08;1.80;;;18.10;68.30;;;;;;5063877;28;20036;-79
2022/09/06 02:58:29;;;;;;;4.32;2.05;;;18.10;68.40;;;;;;5051530;28;20035;-80
2022/09/06 03:00:56;;;;;;;2.78;2.20;;;18.10;68.50;;;;;;5053194;28;20040;-80
2022/09/06 03:03:23;;;;;;;3.53;1.58;;;18.10;68.50;;;;;;5059261;28;20406;-80
2022/09/06 03:05:51;;;;;;;4.72;2.00;;;18.10;68.50;;;;;;5053495;28;20037;-80
2022/09/06 03:08:18;;;;;;;3.45;1.60;;;18.00;68.40;;;;;;5072440;28;20023;-80
2022/09/06 03:10:52;;;;;;;6.40;2.17;;;18.00;68.40;;;;;;5072682;28;20040;-80
2022/09/06 03:13:18;;;;;;;3.50;1.90;;;18.00;68.60;;;;;;5021252;28;20369;-79
2022/09/06 03:15:48;;;;;;;2.55;1.52;;;18.00;68.60;;;;;;5065345;28;20086;-79
2022/09/06 03:18:14;;;;;;;3.53;1.60;;;17.90;68.40;;;;;;5072620;28;20024;-79
2022/09/06 03:20:40;;;;;;;4.20;1.88;;;18.00;68.60;;;;;;5048750;28;20051;-79
2022/09/06 03:23:06;;;;;;;2.70;1.90;;;17.90;68.50;;;;;;5046541;28;20508;-80
2022/09/06 03:25:32;;;;;;;5.72;1.80;;;17.90;68.60;;;;;;5054485;28;20025;-80
2022/09/06 03:27:57;;;;;;;3.00;1.42;;;17.80;68.40;;;;;;5073875;28;20039;-80
2022/09/06 03:30:23;;;;;;;4.60;1.70;;;17.80;68.50;;;;;;5053050;28;20435;-79
2022/09/06 03:32:49;;;;;;;4.75;1.65;;;17.80;68.60;;;;;;5055585;28;20059;-79
2022/09/06 03:35:15;;;;;;;4.85;1.52;;;17.80;68.60;;;;;;5051444;28;20379;-79
2022/09/06 03:37:41;;;;;;;4.68;1.73;;;17.80;68.60;;;;;;5072547;28;20275;-79
2022/09/06 03:40:07;;;;;;;2.78;1.35;;;17.80;68.70;;;;;;5076127;28;20044;-78
2022/09/06 03:42:33;;;;;;;4.78;2.35;;;17.70;68.50;;;;;;5068697;28;20029;-79
2022/09/06 03:44:59;;;;;;;2.88;1.15;;;17.70;68.60;;;;;;5067948;28;20036;-78
2022/09/06 03:47:25;;;;;;;3.70;1.90;;;17.70;68.70;;;;;;5049462;28;20080;-79
2022/09/06 03:49:51;;;;;;;3.58;1.55;;;17.60;68.50;;;;;;5066588;28;20033;-79
2022/09/06 03:52:17;;;;;;;2.10;1.40;;;17.60;68.50;;;;;;5052000;28;20021;-79
2022/09/06 03:54:42;;;;;;;3.53;1.45;;;17.60;68.60;;;;;;5052468;28;20036;-78
2022/09/06 03:57:09;;;;;;;2.42;1.58;;;17.60;68.70;;;;;;5061843;28;20021;-80
2022/09/06 03:59:35;;;;;;;2.42;1.60;;;17.50;68.50;;;;;;5059268;28;20569;-80
2022/09/06 04:02:01;;;;;;;2.63;1.70;;;17.50;68.60;;;;;;5064098;28;20017;-80
2022/09/06 04:04:27;;;;;;;4.30;1.50;;;17.50;68.60;;;;;;5034582;28;20029;-80
2022/09/06 04:06:53;;;;;;;4.13;1.83;;;17.40;68.50;;;;;;5051649;28;20027;-80
2022/09/06 04:09:19;;;;;;;2.40;1.17;;;17.40;68.60;;;;;;5068177;28;20025;-80
2022/09/06 04:11:45;;;;;;;3.72;1.58;;;17.30;68.50;;;;;;5069677;28;20812;-80
2022/09/06 04:14:11;;;;;;;4.57;1.83;;;17.30;68.50;;;;;;5068882;28;20039;-81
2022/09/06 04:16:36;;;;;;;4.85;1.85;;;17.30;68.60;;;;;;5050409;28;20029;-80
2022/09/06 04:19:03;;;;;;;4.55;2.35;;;17.30;68.60;;;;;;5068786;28;20127;-80
2022/09/06 04:21:29;;;;;;;4.05;1.65;;;17.30;68.70;;;;;;5051368;28;20035;-79
2022/09/06 04:23:55;;;;;;;3.95;1.42;;;17.30;68.70;;;;;;5070269;28;20037;-80
2022/09/06 04:26:21;;;;;;;5.07;1.77;;;17.30;68.80;;;;;;5034502;28;20565;-81
2022/09/06 04:28:47;;;;;;;4.80;1.45;;;17.20;68.60;;;;;;5043930;28;20081;-80
2022/09/06 04:31:13;;;;;;;4.65;2.08;;;17.20;68.70;;;;;;5047724;28;20035;-80
2022/09/06 04:33:39;;;;;;;3.30;1.38;;;17.20;68.70;;;;;;5061193;28;20028;-80
2022/09/06 04:36:08;;;;;;;3.03;1.63;;;17.20;68.80;;;;;;5051158;28;20429;-79
2022/09/06 04:38:40;;;;;;;5.65;1.75;;;17.20;68.80;;;;;;5052064;28;20028;-79
2022/09/06 04:41:08;;;;;;;3.97;2.13;;;17.20;68.80;;;;;;5017327;28;20391;-79
2022/09/06 04:43:34;;;;;;;5.50;1.77;;;17.20;68.80;;;;;;5064304;28;20199;-79
2022/09/06 04:46:05;;;;;;;5.53;1.67;;;17.20;68.80;;;;;;5073237;28;20115;-80
2022/09/06 04:48:31;;;;;;;5.35;1.42;;;17.20;68.90;;;;;;5070847;28;20398;-80
2022/09/06 04:50:57;;;;;;;4.18;1.80;;;17.20;68.90;;;;;;5064780;28;20032;-80
2022/09/06 04:53:23;;;;;;;3.70;2.38;;;17.10;68.70;;;;;;5062132;28;20395;-80
2022/09/06 04:55:49;;;;;;;2.80;1.60;;;17.10;68.80;;;;;;5065257;28;20411;-80
2022/09/06 04:58:15;;;;;;;2.60;1.20;;;17.10;68.80;;;;;;5067151;28;20155;-80
2022/09/06 05:00:43;;;;;;;5.15;1.80;;;17.10;68.80;;;;;;5039755;28;20040;-80
2022/09/06 05:03:09;;;;;;;3.00;1.67;;;17.10;68.90;;;;;;5064013;28;20028;-80
2022/09/06 05:05:35;;;;;;;3.67;1.30;;;17.10;68.90;;;;;;5053932;28;20032;-80
2022/09/06 05:08:01;;;;;;;4.28;1.90;;;17.10;68.90;;;;;;5049646;28;20075;-80
2022/09/06 05:10:27;;;;;;;3.80;1.52;;;17.10;68.90;;;;;;5067127;28;20039;-82
2022/09/06 05:12:53;;;;;;;2.70;1.67;;;17.10;68.90;;;;;;5063128;28;20511;-80
2022/09/06 05:15:21;;;;;;;1.98;1.10;;;17.10;68.90;;;;;;5059054;28;20210;-80
2022/09/06 05:17:47;;;;;;;4.47;2.00;;;17.10;68.90;;;;;;5067165;28;20032;-79
2022/09/06 05:20:13;;;;;;;4.68;1.92;;;17.10;68.90;;;;;;5056429;28;20442;-79
2022/09/06 05:22:39;;;;;;;4.88;2.22;;;17.10;69.00;;;;;;5066918;28;20097;-80
2022/09/06 05:25:07;;;;;;;4.50;1.75;;;17.20;69.20;;;;;;5067421;28;20024;-80
2022/09/06 05:27:33;;;;;;;4.20;1.85;;;17.20;69.20;;;;;;5047633;28;20036;-79
2022/09/06 05:29:59;;;;;;;4.63;2.65;;;17.20;69.20;;;;;;5054411;28;20036;-80
2022/09/06 05:32:25;;;;;;;3.95;1.50;;;17.20;69.20;;;;;;5052840;28;20029;-80
2022/09/06 05:34:50;;;;;;;5.35;2.85;;;17.20;69.20;;;;;;5058728;28;20029;-79
2022/09/06 05:37:16;;;;;;;5.50;1.60;;;17.20;69.20;;;;;;5044679;28;20057;-80
2022/09/06 05:39:42;;;;;;;9.43;2.65;;;17.20;69.20;;;;;;5065149;28;20105;-81
2022/09/06 05:42:08;;;;;;;6.13;1.80;;;17.30;69.40;;;;;;5064258;28;20082;-80
2022/09/06 05:44:35;;;;;;;3.95;1.38;;;17.20;69.20;;;;;;5063005;28;20034;-80
2022/09/06 05:47:02;;;;;;;4.05;1.52;;;17.30;69.40;;;;;;5029733;28;20040;-79
2022/09/06 05:49:29;;;;;;;5.70;1.67;;;17.30;69.40;;;;;;5068094;28;20028;-80
2022/09/06 05:51:56;;;;;;;7.43;2.00;;;17.30;69.40;;;;;;5063898;28;20024;-80
2022/09/06 05:54:22;;;;;;;5.03;1.65;;;17.30;69.40;;;;;;5061058;28;20041;-80
2022/09/06 05:56:48;;;;;;;6.53;2.08;;;17.30;69.40;;;;;;5061733;28;20090;-80
2022/09/06 05:59:14;;;;;;;3.63;1.52;;;17.30;69.40;;;;;;5058793;28;20564;-80
2022/09/06 06:01:49;;;;;;;5.10;1.70;;;17.40;69.60;;;;;;5059689;28;20032;-80
2022/09/06 06:04:17;;;;;;;6.05;1.95;;;17.40;69.60;;;;;;5065937;28;20187;-81
2022/09/06 06:06:44;;;;;;;3.78;1.70;;;17.40;69.50;;;;;;5063899;28;20097;-81
2022/09/06 06:09:09;;;;;;;3.60;1.50;;;17.40;69.50;;;;;;5060854;28;20032;-80
2022/09/06 06:11:36;;;;;;;4.72;1.48;;;17.50;70.20;;;;;;5063687;28;20031;-80
2022/09/06 06:14:03;;;;;;;4.82;1.45;;;17.50;69.60;;;;;;5046279;28;20523;-83
2022/09/06 06:16:29;;;;;;;4.32;1.55;;;17.50;69.60;;;;;;5040368;28;20059;-83
2022/09/06 06:18:55;;;;;;;4.32;1.67;;;17.60;69.80;;;;;;5045487;28;20042;-84
2022/09/06 06:21:23;;;;;;;5.43;1.77;;;17.60;69.80;;;;;;5028924;28;20043;-82
2022/09/06 06:23:58;;;;;;;7.18;1.85;;;17.60;69.80;;;;;;5064472;28;20081;-83
2022/09/06 06:26:26;;;;;;;3.95;1.60;;;17.60;69.80;;;;;;5044819;28;20048;-84
2022/09/06 06:28:52;;;;;;;5.57;1.67;;;17.70;70.00;;;;;;5054366;28;20030;-83
2022/09/06 06:31:20;;;;;;;5.78;1.30;;;17.70;70.00;;;;;;5052583;28;20039;-83
2022/09/06 06:33:47;;;;;;;4.97;1.60;;;17.70;70.00;;;;;;5038106;28;20028;-81
2022/09/06 06:36:13;;;;;;;6.20;1.90;;;17.70;70.00;;;;;;5047051;28;20334;-84
2022/09/06 06:38:41;;;;;;;3.22;1.70;;;17.70;70.00;;;;;;5063880;28;20028;-83
2022/09/06 06:41:09;;;;;;;4.35;1.20;;;17.80;70.10;;;;;;5029982;28;20507;-82
2022/09/06 06:43:36;;;;;;;5.75;1.80;;;17.80;70.10;;;;;;5062488;28;20043;-82
2022/09/06 06:46:03;;;;;;;4.80;1.20;;;17.90;70.30;;;;;;5046027;28;20053;-84
2022/09/06 06:48:29;;;;;;;4.25;1.92;;;17.90;70.20;;;;;;5063813;28;20069;-82
2022/09/06 06:50:55;;;;;;;5.28;2.35;;;18.00;70.30;;;;;;5046390;28;20032;-81
2022/09/06 06:53:21;;;;;;;5.95;2.30;;;18.00;70.90;;;;;;5053875;28;20031;-80
2022/09/06 06:55:47;;;;;;;6.68;2.70;;;18.00;70.70;;;;;;5064246;28;20029;-80
2022/09/06 06:58:15;;;;;;;7.57;2.00;;;18.10;71.20;;;;;;5042467;28;20021;-80
2022/09/06 07:00:42;;;;;;;4.43;2.42;;;18.20;71.70;;;;;;5060854;28;20040;-77
2022/09/06 07:03:09;;;;;;;5.50;2.58;;;18.20;71.80;;;;;;5054397;28;20044;-79
2022/09/06 07:05:35;;;;;;;7.53;2.63;;;18.30;72.20;;;;;;5062252;28;20427;-77
2022/09/06 07:08:02;;;;;;;6.30;2.15;;;18.40;72.50;;;;;;5062403;28;20024;-79
2022/09/06 07:10:27;;;;;;;8.73;2.78;;;18.50;72.60;;;;;;5054213;28;20047;-77
2022/09/06 07:12:53;;;;;;;5.68;2.05;;;18.60;72.70;;;;;;5058789;28;20479;-80
2022/09/06 07:15:19;;;;;;;3.53;2.08;;;18.70;72.80;;;;;;5063412;28;20557;-80
2022/09/06 07:17:46;;;;;;;5.72;1.75;;;18.70;72.80;;;;;;5031156;28;20037;-81
2022/09/06 07:20:12;;;;;;;5.47;2.72;;;18.80;73.00;;;;;;5061123;28;20044;-80
2022/09/06 07:22:39;;;;;;;9.02;3.13;;;18.80;73.00;;;;;;5067001;28;20032;-81
2022/09/06 07:25:06;;;;;;;9.73;2.75;;;18.90;73.10;;;;;;5067182;28;20556;-80
2022/09/06 07:27:32;;;;;;;5.22;1.77;;;19.00;73.30;;;;;;5058973;28;20762;-81
2022/09/06 07:29:58;;;;;;;4.78;1.52;;;19.00;73.30;;;;;;5064512;28;20402;-80
2022/09/06 07:32:24;;;;;;;9.05;2.60;;;19.00;73.30;;;;;;5060532;28;20485;-79
2022/09/06 07:34:50;;;;;;;4.90;1.95;;;19.00;73.30;;;;;;5025958;28;20032;-79
2022/09/06 07:37:15;;;;;;;6.20;2.72;;;19.10;73.50;;;;;;5063070;28;20094;-78
2022/09/06 07:39:41;;;;;;;3.10;1.80;;;19.20;73.70;;;;;;5065071;28;20047;-79
2022/09/06 07:42:07;;;;;;;8.40;2.38;;;19.20;73.50;;;;;;5063531;28;20029;-79
2022/09/06 07:44:33;;;;;;;4.68;2.25;;;19.30;73.50;;;;;;5047143;28;20050;-78
2022/09/06 07:47:05;;;;;;;10.50;3.40;;;19.40;73.40;;;;;;5063612;28;20048;-80
2022/09/06 07:49:33;;;;;;;5.72;1.90;;;19.50;73.40;;;;;;5048649;28;20110;-80
2022/09/06 07:51:59;;;;;;;7.20;2.80;;;19.60;73.50;;;;;;5044583;28;20032;-81
2022/09/06 07:54:25;;;;;;;7.15;2.15;;;19.60;73.40;;;;;;5064460;28;20024;-82
2022/09/06 07:56:51;;;;;;;9.88;2.28;;;19.70;73.40;;;;;;5054057;28;20028;-80
2022/09/06 07:59:17;;;;;;;6.00;2.13;;;19.80;73.50;;;;;;5038530;28;20071;-81
2022/09/06 08:01:43;;;;;;;7.50;2.13;;;19.80;73.30;;;;;;5062860;28;20719;-79
2022/09/06 08:04:13;;;;;;;7.82;2.15;;;19.90;73.20;;;;;;5047001;28;20082;-82
2022/09/06 08:06:45;;;;;;;6.35;2.08;;;19.90;73.10;;;;;;5057532;28;20365;-81
2022/09/06 08:09:11;;;;;;;9.40;1.95;;;20.00;73.10;;;;;;5048154;28;20369;-81
2022/09/06 08:11:38;;;;;;;7.10;1.98;;;20.10;73.00;;;;;;5028525;28;20033;-80
2022/09/06 08:14:06;;;;;;;7.75;1.73;;;20.20;72.90;;;;;;5059583;28;20505;-82
2022/09/06 08:16:33;;;;;;;5.32;1.83;;;20.30;72.80;;;;;;5054630;28;20123;-81
2022/09/06 08:19:02;;;;;;;4.35;2.15;;;20.50;72.70;;;;;;5029911;28;20107;-81
2022/09/06 08:21:31;;;;;;;8.02;1.70;;;20.60;72.50;;;;;;5053901;28;20036;-80
2022/09/06 08:24:02;;;;;;;6.55;2.40;;;20.70;72.40;;;;;;5049438;28;20017;-79
2022/09/06 08:26:30;;;;;;;8.23;2.67;;;20.80;72.40;;;;;;5028101;28;20025;-82
2022/09/06 08:28:59;;;;;;;5.65;1.60;;;20.90;72.40;;;;;;5060223;28;20090;-81
2022/09/06 08:31:26;;;;;;;6.72;1.92;;;21.00;72.30;;;;;;5060460;28;20033;-81
2022/09/06 08:33:53;;;;;;;7.15;1.85;;;21.20;72.50;;;;;;5042604;28;20126;-82
2022/09/06 08:36:20;;;;;;;7.63;2.28;;;21.40;72.50;;;;;;5052911;28;20433;-82
2022/09/06 08:38:46;;;;;;;5.70;2.35;;;21.50;72.40;;;;;;5067277;28;20399;-82
2022/09/06 08:41:26;;;;;;;5.72;1.88;;;21.70;72.30;;;;;;5046278;28;20422;-84
2022/09/06 08:43:54;;;;;;;6.03;1.50;;;21.80;72.00;;;;;;5049027;28;20484;-81
2022/09/06 08:46:26;;;;;;;8.20;1.70;;;21.90;71.80;;;;;;5060165;28;20327;-81
2022/09/06 08:48:53;;;;;;;;;;;22.10;71.70;;;;;;5044256;28;20033;-84
2022/09/06 08:51:51;;;;;;;6.00;2.22;;;22.20;71.50;;;;;;5044696;28;19916;-79
2022/09/06 08:54:31;;;;;;;6.07;1.48;;;22.40;71.40;;;;;;5039286;28;20128;-83
2022/09/06 08:57:14;;;;;;;7.43;1.80;;;22.60;71.20;;;;;;5050939;28;20025;-83
2022/09/06 08:59:41;;;;;;;8.75;2.67;;;22.80;70.90;;;;;;5025418;28;20063;-83
2022/09/06 09:02:32;;;;;;;6.13;2.22;;;22.90;70.70;;;;;;5045473;28;20381;-83
2022/09/06 09:05:03;;;;;;;7.72;2.15;;;23.00;70.50;;;;;;5059749;28;20304;-84
2022/09/06 09:08:01;;;;;;;13.45;3.03;;;23.10;70.50;;;;;;5020083;28;20385;-81
2022/09/06 09:10:31;;;;;;;6.57;2.22;;;23.20;70.30;;;;;;5059339;28;20380;-81
2022/09/06 09:13:01;;;;;;;8.20;2.42;;;23.40;70.40;;;;;;5060120;28;20441;-81
2022/09/06 09:15:27;;;;;;;7.00;1.77;;;23.50;70.20;;;;;;5045189;28;20042;-82
2022/09/06 09:17:56;;;;;;;7.22;2.60;;;23.60;70.10;;;;;;5060388;28;20029;-83
2022/09/06 09:20:22;;;;;;;10.60;2.70;;;23.70;69.60;;;;;;5057354;28;20108;-85
2022/09/06 09:22:48;;;;;;;6.45;2.13;;;23.80;69.30;;;;;;5052348;28;20039;-84
2022/09/06 09:25:20;;;;;;;10.15;1.90;;;24.00;69.10;;;;;;5064258;28;20029;-86
2022/09/06 09:27:48;;;;;;;5.97;1.90;;;24.10;68.50;;;;;;5025330;28;20025;-84
2022/09/06 09:30:14;;;;;;;7.85;2.58;;;24.10;68.20;;;;;;5046910;28;20029;-84
2022/09/06 09:32:43;;;;;;;9.70;2.00;;;24.10;68.00;;;;;;5027514;28;20040;-83
2022/09/06 09:35:41;;;;;;;7.43;1.38;;;24.10;67.90;;;;;;5064232;28;20028;-86
2022/09/06 09:38:17;;;;;;;6.93;2.17;;;24.10;67.70;;;;;;5049715;28;20041;-85
2022/09/06 09:40:56;;;;;;;8.80;2.30;;;24.00;67.70;;;;;;5013699;28;20526;-86
2022/09/06 09:43:25;;;;;;;8.38;2.95;;;24.00;67.60;;;;;;5056507;28;20032;-85
2022/09/06 09:46:09;;;;;;;5.63;1.50;;;24.10;67.70;;;;;;5033935;28;20031;-86
2022/09/06 09:48:36;;;;;;;9.95;2.15;;;24.10;67.40;;;;;;5047610;28;20050;-85
2022/09/06 09:51:19;;;;;;;8.25;1.92;;;24.20;67.40;;;;;;5057747;28;20028;-87
2022/09/06 09:54:05;;;;;;;;;;;24.30;67.30;;;;;;5063897;28;20040;-86
2022/09/06 09:56:42;;;;;;;5.18;1.85;;;24.40;67.50;;;;;;5043877;28;19909;-86
2022/09/06 09:59:22;;;;;;;7.28;1.80;;;24.50;67.30;;;;;;5044403;28;20029;-84
2022/09/06 10:01:50;;;;;;;4.95;1.42;;;24.60;67.00;;;;;;5028722;28;20036;-85
2022/09/06 10:04:29;;;;;;;7.07;1.90;;;24.70;66.90;;;;;;5029209;28;20024;-81
2022/09/06 10:07:27;;;;;;;4.35;1.40;;;24.70;66.60;;;;;;5060009;28;20035;-80
2022/09/06 10:10:12;;;;;;;14.65;3.35;;;24.60;66.10;;;;;;5013041;28;20032;-82
2022/09/06 10:12:40;;;;;;;6.82;2.50;;;24.50;66.20;;;;;;5039764;28;20044;-81
2022/09/06 10:15:08;;;;;;;5.13;1.50;;;24.40;66.10;;;;;;5058469;28;20387;-81
2022/09/06 10:17:47;;;;;;;7.10;1.88;;;24.30;66.00;;;;;;5037327;28;20049;-80
2022/09/06 10:20:14;;;;;;;7.40;1.50;;;24.30;66.00;;;;;;5056079;28;20522;-82
2022/09/06 10:23:04;;;;;;;7.43;1.95;;;24.20;65.90;;;;;;5057679;28;20013;-80
2022/09/06 10:25:53;;;;;;;8.27;1.92;;;24.10;65.60;;;;;;5057659;28;20035;-80
2022/09/06 10:28:30;;;;;;;4.82;1.30;;;24.10;65.80;;;;;;5064174;28;20622;-82
2022/09/06 10:31:14;;;;;;;9.25;1.70;;;24.00;65.60;;;;;;5069819;28;20032;-83
2022/09/06 10:34:00;;;;;;;7.63;1.77;;;24.00;65.60;;;;;;5056956;28;20025;-82
2022/09/06 10:36:52;;;;;;;5.57;2.03;;;24.00;65.70;;;;;;5019974;28;20257;-83
2022/09/06 10:39:33;;;;;;;10.52;2.38;;;24.00;65.50;;;;;;5044842;28;20050;-83
2022/09/06 10:42:19;;;;;;;4.95;1.30;;;24.00;65.70;;;;;;5045599;28;20032;-81
2022/09/06 10:45:09;;;;;;;6.28;1.65;;;24.00;65.80;;;;;;5029160;28;20033;-80
2022/09/06 10:47:55;;;;;;;7.40;2.40;;;24.00;65.80;;;;;;5061285;28;20402;-79
2022/09/06 10:50:29;;;;;;;6.10;1.80;;;24.00;65.90;;;;;;5032641;28;20142;-80
2022/09/06 10:53:06;;;;;;;7.15;1.77;;;24.00;66.00;;;;;;5067479;28;20028;-78
2022/09/06 10:55:32;;;;;;;5.85;1.70;;;24.00;65.90;;;;;;5067916;28;20085;-79
2022/09/06 10:58:03;;;;;;;3.72;1.35;;;24.00;65.90;;;;;;5060824;28;20179;-79
2022/09/06 11:00:36;;;;;;;4.63;1.63;;;24.10;65.90;;;;;;5055551;28;20045;-80
2022/09/06 11:03:30;;;;;;;8.90;2.20;;;24.10;65.70;;;;;;5053647;28;21561;-82
2022/09/06 11:06:19;;;;;;;8.55;1.92;;;24.20;65.50;;;;;;5059245;28;20442;-79
2022/09/06 11:08:52;;;;;;;7.13;1.73;;;24.30;65.30;;;;;;5055956;28;20325;-78
2022/09/06 11:11:41;;;;;;;8.98;2.20;;;24.40;65.20;;;;;;5056142;28;20020;-79
2022/09/06 11:14:12;;;;;;;7.57;2.33;;;24.40;64.80;;;;;;5048213;28;20372;-80
2022/09/06 11:16:50;;;;;;;7.32;2.28;;;24.50;64.70;;;;;;5034390;28;20105;-80
2022/09/06 11:19:48;;;;;;;9.63;2.22;;;24.50;64.20;;;;;;5070843;28;20161;-79
2022/09/06 11:22:52;;;;;;;7.82;1.88;;;24.60;64.00;;;;;;5059654;28;20040;-78
2022/09/06 11:25:55;;;;;;;7.50;1.75;;;24.70;63.90;;;;;;5060007;28;20043;-79
2022/09/06 11:28:33;;;;;;;10.43;2.00;;;24.80;63.80;;;;;;5037758;28;20035;-79
2022/09/06 11:31:00;;;;;;;6.10;2.00;;;24.90;63.80;;;;;;5062955;28;20469;-79
2022/09/06 11:33:29;;;;;;;19.52;2.90;;;24.90;63.60;;;;;;5063979;28;20043;-79
2022/09/06 11:36:24;;;;;;;5.57;2.00;;;25.00;63.50;;;;;;5051080;28;20036;-79
2022/09/06 11:38:58;;;;;;;8.25;2.28;;;25.10;63.20;;;;;;5069683;28;20186;-78
2022/09/06 11:41:50;;;;;;;6.50;2.85;;;25.10;63.00;;;;;;5071127;28;20500;-79
2022/09/06 11:44:48;;;;;;;6.72;1.63;;;25.30;62.60;;;;;;5061775;28;20044;-79
2022/09/06 11:47:34;;;;;;;7.03;1.58;;;25.40;62.40;;;;;;5051886;28;20398;-79
2022/09/06 11:50:20;;;;;;;6.63;1.67;;;25.50;62.10;;;;;;5059437;28;20089;-80
2022/09/06 11:53:17;;;;;;;6.30;1.63;;;25.50;61.80;;;;;;5066360;28;20028;-79
2022/09/06 11:55:58;;;;;;;8.35;2.13;;;25.60;61.60;;;;;;5028143;28;20040;-81
2022/09/06 11:58:35;;;;;;;8.15;2.33;;;25.60;61.60;;;;;;5058504;28;20028;-79
2022/09/06 12:01:15;;;;;;;8.82;1.83;;;25.60;61.40;;;;;;5061717;28;20040;-79
2022/09/06 12:03:47;;;;;;;5.82;1.63;;;25.70;61.00;;;;;;5037989;28;20036;-79
2022/09/06 12:06:23;;;;;;;8.07;2.22;;;25.80;61.00;;;;;;5030792;28;20397;-79
2022/09/06 12:08:54;;;;;;;4.10;1.33;;;25.90;60.60;;;;;;5063621;28;20028;-80
2022/09/06 12:11:44;;;;;;;7.03;1.70;;;26.10;60.40;;;;;;5047793;28;20043;-79
2022/09/06 12:14:31;;;;;;;4.35;1.27;;;26.20;59.30;;;;;;5027067;28;20208;-79
2022/09/06 12:16:57;;;;;;;3.80;1.52;;;26.40;58.70;;;;;;5065453;28;20158;-78
2022/09/06 12:19:47;;;;;;;9.88;2.45;;;26.50;58.50;;;;;;5065141;28;20040;-78
2022/09/06 12:22:28;;;;;;;7.50;2.33;;;26.70;57.60;;;;;;5037502;28;20029;-78
2022/09/06 12:25:06;;;;;;;6.93;1.65;;;26.80;57.20;;;;;;5035722;28;20544;-78
2022/09/06 12:27:36;;;;;;;7.93;1.70;;;26.90;56.90;;;;;;5064557;28;20179;-79
2022/09/06 12:30:10;;;;;;;6.18;2.38;;;26.90;56.80;;;;;;5065041;28;20047;-79
2022/09/06 12:32:47;;;;;;;7.20;1.65;;;26.90;56.50;;;;;;5055703;28;20029;-79
2022/09/06 12:35:19;;;;;;;8.75;1.95;;;26.90;56.40;;;;;;5052970;28;20703;-78
2022/09/06 12:38:06;;;;;;;9.00;2.77;;;27.00;56.50;;;;;;5042985;28;20124;-79
2022/09/06 12:40:37;;;;;;;6.35;1.70;;;27.10;56.30;;;;;;5064918;28;20048;-78
2022/09/06 12:43:04;;;;;;;5.50;1.53;;;27.20;56.40;;;;;;5061033;28;20074;-79
2022/09/06 12:45:32;;;;;;;5.10;1.40;;;27.40;56.30;;;;;;5065420;28;20039;-80
2022/09/06 12:48:08;;;;;;;6.15;1.65;;;27.50;56.00;;;;;;5040834;28;20399;-80
2022/09/06 12:50:35;;;;;;;3.45;1.20;;;27.70;55.70;;;;;;5052264;28;20285;-79
2022/09/06 12:53:03;;;;;;;4.65;1.30;;;27.80;55.70;;;;;;5064930;28;20028;-79
2022/09/06 12:55:34;;;;;;;6.82;1.30;;;27.90;55.50;;;;;;5070812;28;20115;-78
2022/09/06 12:58:03;;;;;;;7.37;2.20;;;28.00;55.40;;;;;;5049003;28;20492;-78
2022/09/06 13:00:36;;;;;;;5.85;1.75;;;28.10;55.30;;;;;;5045015;28;20294;-79
2022/09/06 13:03:14;;;;;;;3.95;0.90;;;28.10;55.00;;;;;;5063016;28;20028;-79
2022/09/06 13:05:41;;;;;;;3.03;1.27;;;28.30;55.10;;;;;;5047194;28;20046;-79
2022/09/06 13:08:16;;;;;;;4.47;1.30;;;28.40;54.90;;;;;;5048716;28;20031;-79
2022/09/06 13:10:45;;;;;;;5.72;1.90;;;28.40;54.60;;;;;;5051900;28;20029;-79
2022/09/06 13:13:20;;;;;;;5.15;1.00;;;28.60;54.50;;;;;;5061911;28;20029;-80